Raleigh County Memorial Airport
KBKW : rendu visible

Aérodrome :











RETROUVEZ-NOUS SUR...

 
LOGIN :

S'inscrire | Disclaimer

   EN    FR    IT 

 









Légende :    VFR   VFR Marginal   IFR   IFR Intensif   IFR Très Intensif
Visi : 
Plafond : 
>= 8 km
>= 3000ft
5 à 8 km
1000 à 3000 ft
1500m à 5 km
500 à 1000 ft
800 à 1500m
200 à 500 ft
< 800m
< 200 ft
Symboles :   Orages  Brouillard  Fortes neiges  Fortes précipitations  Vent > 20 kt






- Altitude de l'aérodrome : 2504 ft
- Code IATA : BKW


KBKW - Raleigh County Memorial

DERNIER METAR :
  • 181731Z AUTO 16012G18KT 8SM -RA BKN028 OVC075 04/M02 A3005 RMK AO2 RAB1656 PRESFR P0000 T00391022

METARs EXPIRÉS :
  • 181651Z AUTO 16009G17KT 10SM OVC030 05/M06 A3009 RMK AO2 SLP206 T00501056
  • 181616Z AUTO 16014G23KT 10SM OVC029 04/M07 A3011 RMK AO2 T00441067
  • 181551Z AUTO 15010G17KT 10SM BKN030 03/M07 A3013 RMK AO2 SLP225 T00331067
  • 181548Z AUTO 15012G21KT 10SM BKN030 03/M07 A3014 RMK AO2
  • 181509Z AUTO 15010G22KT 10SM OVC029 02/M08 A3015 RMK AO2 T00221078

TAF KBKW
Valide du 18 à 18h jusqu'au 19 à 18h UTC


181748Z 1818/1918 16012G20KT P6SM -RA BKN028 OVC070
FM181900 18012G24KT 3SM -RA OVC025
FM182100 21012G22KT P6SM OVC018
FM190300 26015G30KT 3SM -SHRA BKN008 OVC025
FM190500 27013G25KT P6SM BKN007 OVC025
FM190800 30013G24KT P6SM OVC022



MET'MAP, la Météo Aéronautique d'un coup d'oeil ! - Copyright ORBIFLY Décembre 2007 - Disclaimer

ORBIFLY MET'MAP TEAM :

Programmation & Développement : Alexandra Zaïnal
Sur une idée originale de : Baudouin d'Aumeries
Assistance à la programmation : Marc-Olivier Méhu
Soutien technique & logistique : Manuel Goepfert

Contact : metmap@orbifly.com




SOURCES & CREDITS :

   NOAA       Earth
Advisory